Time;durP1;ratioP1;P1;durP2;ratioP2;P2;SDS_P1;SDS_P2;PMS_P1;PMS_P2;Temp;Humidity;BMP_temperature;BMP_pressure;BME280_temperature;BME280_humidity;BME280_pressure;Samples;Min_cycle;Max_cycle;Signal;HPM_P1;HPM_P2
2022/03/13 00:02:05;;;;;;;7.43;5.03;;;;;;;;;;5079820;28;20203;-61
2022/03/13 00:04:30;;;;;;;4.28;3.65;;;;;;;;;;5081287;28;20180;-61
2022/03/13 00:06:56;;;;;;;4.65;3.08;;;;;;;;;;5088341;28;20179;-61
2022/03/13 00:09:22;;;;;;;3.60;3.28;;;;;;;;;;5097395;28;20183;-61
2022/03/13 00:11:51;;;;;;;3.25;2.95;;;;;;;;;;5102428;28;20199;-61
2022/03/13 00:14:18;;;;;;;3.30;3.10;;;;;;;;;;5105116;28;20720;-61
2022/03/13 00:16:43;;;;;;;2.90;2.70;;;;;;;;;;5096455;28;20184;-61
2022/03/13 00:19:10;;;;;;;3.35;3.15;;;;;;;;;;5096117;28;20192;-61
2022/03/13 00:21:35;;;;;;;3.80;2.90;;;;;;;;;;5108374;28;20263;-61
2022/03/13 00:24:00;;;;;;;5.70;3.03;;;;;;;;;;5099399;28;20686;-61
2022/03/13 00:26:26;;;;;;;3.30;3.00;;;;;;;;;;5101577;28;20175;-61
2022/03/13 00:28:51;;;;;;;3.40;3.08;;;;;;;;;;5105637;28;20211;-61
2022/03/13 00:31:16;;;;;;;2.97;2.78;;;;;;;;;;5106995;28;20247;-61
2022/03/13 00:33:42;;;;;;;3.42;3.13;;;;;;;;;;5090840;28;20613;-61
2022/03/13 00:36:07;;;;;;;2.65;2.45;;;;;;;;;;5101917;28;20244;-60
2022/03/13 00:38:33;;;;;;;2.97;2.78;;;;;;;;;;5097750;28;20203;-61
2022/03/13 00:40:58;;;;;;;3.13;2.60;;;;;;;;;;5101937;27;20195;-61
2022/03/13 00:43:25;;;;;;;3.40;2.67;;;;;;;;;;5098440;28;20176;-61
2022/03/13 00:45:50;;;;;;;3.83;2.60;;;;;;;;;;5099703;28;20207;-61
2022/03/13 00:48:16;;;;;;;3.00;2.80;;;;;;;;;;5102338;28;20222;-61
2022/03/13 00:50:41;;;;;;;3.05;2.85;;;;;;;;;;5093351;28;20207;-61
2022/03/13 00:53:06;;;;;;;3.72;3.15;;;;;;;;;;5106798;28;20180;-60
2022/03/13 00:55:32;;;;;;;3.38;2.90;;;;;;;;;;5099226;28;20232;-61
2022/03/13 00:57:57;;;;;;;3.22;2.95;;;;;;;;;;5102772;28;20192;-61
2022/03/13 01:00:22;;;;;;;3.30;3.10;;;;;;;;;;5097336;28;20184;-61
2022/03/13 01:02:49;;;;;;;2.97;2.67;;;;;;;;;;5100723;28;20237;-61
2022/03/13 01:05:21;;;;;;;3.95;3.00;;;;;;;;;;5078113;28;20271;-61
2022/03/13 01:07:46;;;;;;;3.30;3.00;;;;;;;;;;5099659;28;20256;-60
2022/03/13 01:10:11;;;;;;;2.58;2.38;;;;;;;;;;5105336;28;20176;-61
2022/03/13 01:12:37;;;;;;;2.90;2.70;;;;;;;;;;5101474;28;20575;-61
2022/03/13 01:15:03;;;;;;;2.90;2.70;;;;;;;;;;5101119;28;20184;-61
2022/03/13 01:17:28;;;;;;;2.90;2.70;;;;;;;;;;5103401;28;20689;-61
2022/03/13 01:19:53;;;;;;;2.75;2.55;;;;;;;;;;5102391;28;20203;-61
2022/03/13 01:22:18;;;;;;;2.30;2.20;;;;;;;;;;5100660;28;20176;-61
2022/03/13 01:24:44;;;;;;;2.80;2.60;;;;;;;;;;5095623;28;20241;-61
2022/03/13 01:27:14;;;;;;;2.95;2.60;;;;;;;;;;5098118;28;20186;-61
2022/03/13 01:29:40;;;;;;;2.67;2.47;;;;;;;;;;5100530;28;20182;-61
2022/03/13 01:32:07;;;;;;;2.85;2.65;;;;;;;;;;5104361;28;20188;-61
2022/03/13 01:34:32;;;;;;;3.40;3.10;;;;;;;;;;5100070;28;20265;-61
2022/03/13 01:36:57;;;;;;;3.22;2.92;;;;;;;;;;5100356;28;20175;-61
2022/03/13 01:39:23;;;;;;;3.15;2.92;;;;;;;;;;5098749;28;20250;-61
2022/03/13 01:41:48;;;;;;;2.78;2.58;;;;;;;;;;5102898;28;20168;-61
2022/03/13 01:44:13;;;;;;;3.00;2.80;;;;;;;;;;5108705;28;20183;-61
2022/03/13 01:46:38;;;;;;;2.53;2.40;;;;;;;;;;5089228;28;20211;-61
2022/03/13 01:49:05;;;;;;;2.78;2.58;;;;;;;;;;5078128;28;20193;-61
2022/03/13 01:51:31;;;;;;;4.50;3.88;;;;;;;;;;5080041;28;20180;-61
2022/03/13 01:53:58;;;;;;;4.03;3.55;;;;;;;;;;5105396;28;20202;-61
2022/03/13 01:56:23;;;;;;;3.20;2.90;;;;;;;;;;5097983;28;20260;-61
2022/03/13 01:58:52;;;;;;;3.83;3.13;;;;;;;;;;5107388;28;20294;-61
2022/03/13 02:01:18;;;;;;;3.60;3.30;;;;;;;;;;5106707;28;20255;-61
2022/03/13 02:03:43;;;;;;;3.47;3.17;;;;;;;;;;5101939;28;20187;-61
2022/03/13 02:06:09;;;;;;;5.80;3.15;;;;;;;;;;5102394;28;20173;-61
2022/03/13 02:08:35;;;;;;;3.22;2.95;;;;;;;;;;5078052;28;20204;-61
2022/03/13 02:11:00;;;;;;;3.35;3.03;;;;;;;;;;5098550;28;20182;-61
2022/03/13 02:13:26;;;;;;;3.22;2.92;;;;;;;;;;5099239;27;20188;-61
2022/03/13 02:15:53;;;;;;;3.20;2.88;;;;;;;;;;5095053;28;20230;-61
2022/03/13 02:18:18;;;;;;;3.38;3.08;;;;;;;;;;5100849;28;20297;-61
2022/03/13 02:20:45;;;;;;;3.05;2.80;;;;;;;;;;5101688;28;20242;-61
2022/03/13 02:23:16;;;;;;;3.13;2.92;;;;;;;;;;5096800;28;20176;-61
2022/03/13 02:25:41;;;;;;;3.53;3.22;;;;;;;;;;5097302;28;21022;-61
2022/03/13 02:28:06;;;;;;;2.40;2.30;;;;;;;;;;5091765;28;20179;-61
2022/03/13 02:30:33;;;;;;;3.20;2.90;;;;;;;;;;5097294;28;20211;-61
2022/03/13 02:32:58;;;;;;;2.97;2.70;;;;;;;;;;5099161;28;20205;-61
2022/03/13 02:35:23;;;;;;;2.90;2.70;;;;;;;;;;5099058;28;20199;-61
2022/03/13 02:37:48;;;;;;;5.10;2.90;;;;;;;;;;5093242;28;20621;-61
2022/03/13 02:40:19;;;;;;;3.00;2.70;;;;;;;;;;5103112;28;20207;-61
2022/03/13 02:42:44;;;;;;;2.85;2.65;;;;;;;;;;5102472;28;20596;-61
2022/03/13 02:45:10;;;;;;;2.42;2.22;;;;;;;;;;5097701;28;20676;-61
2022/03/13 02:47:35;;;;;;;2.90;2.70;;;;;;;;;;5099623;28;20180;-61
2022/03/13 02:50:00;;;;;;;2.67;2.47;;;;;;;;;;5095487;28;20298;-61
2022/03/13 02:52:26;;;;;;;2.38;2.25;;;;;;;;;;5097598;28;20181;-61
2022/03/13 02:54:51;;;;;;;5.25;3.08;;;;;;;;;;5100434;28;20180;-61
2022/03/13 02:57:16;;;;;;;2.97;2.78;;;;;;;;;;5092771;28;20285;-61
2022/03/13 02:59:42;;;;;;;3.00;2.70;;;;;;;;;;5102759;28;20227;-61
2022/03/13 03:02:07;;;;;;;3.45;3.20;;;;;;;;;;5099737;28;20179;-61
2022/03/13 03:04:33;;;;;;;3.85;3.20;;;;;;;;;;5101473;28;20171;-61
2022/03/13 03:07:02;;;;;;;2.83;2.63;;;;;;;;;;5096749;28;20572;-61
2022/03/13 03:09:29;;;;;;;2.35;2.25;;;;;;;;;;5101579;28;20274;-61
2022/03/13 03:11:55;;;;;;;2.92;2.78;;;;;;;;;;5076278;28;20237;-61
2022/03/13 03:14:21;;;;;;;3.03;2.83;;;;;;;;;;5077475;28;20180;-61
2022/03/13 03:16:46;;;;;;;3.50;3.20;;;;;;;;;;5087986;28;20660;-61
2022/03/13 03:19:12;;;;;;;2.92;2.72;;;;;;;;;;5106102;28;20374;-61
2022/03/13 03:21:39;;;;;;;2.88;2.58;;;;;;;;;;5095569;28;20185;-61
2022/03/13 03:24:14;;;;;;;3.10;2.90;;;;;;;;;;5099782;28;20550;-61
2022/03/13 03:26:40;;;;;;;3.00;2.60;;;;;;;;;;5100201;28;20197;-61
2022/03/13 03:29:05;;;;;;;2.70;2.50;;;;;;;;;;5105256;28;20652;-61
2022/03/13 03:31:31;;;;;;;3.90;2.92;;;;;;;;;;5096801;28;20198;-62
2022/03/13 03:33:56;;;;;;;2.85;2.65;;;;;;;;;;5095017;28;20876;-61
2022/03/13 03:36:21;;;;;;;3.03;2.60;;;;;;;;;;5098035;28;20175;-59
2022/03/13 03:38:47;;;;;;;2.80;2.50;;;;;;;;;;5093428;28;20206;-61
2022/03/13 03:41:12;;;;;;;3.38;2.60;;;;;;;;;;5094387;28;20203;-62
2022/03/13 03:43:37;;;;;;;3.65;3.10;;;;;;;;;;5101295;28;20245;-60
2022/03/13 03:46:03;;;;;;;3.42;2.50;;;;;;;;;;5096808;28;20180;-60
2022/03/13 03:48:28;;;;;;;3.08;2.70;;;;;;;;;;5093709;28;20644;-60
2022/03/13 03:50:53;;;;;;;2.60;2.40;;;;;;;;;;5097718;28;20206;-60
2022/03/13 03:53:19;;;;;;;2.83;2.58;;;;;;;;;;5080592;28;20214;-60
2022/03/13 03:55:44;;;;;;;3.10;2.80;;;;;;;;;;5076488;28;20180;-61
2022/03/13 03:58:09;;;;;;;2.65;2.45;;;;;;;;;;5080447;28;20629;-61
2022/03/13 04:00:35;;;;;;;3.05;2.85;;;;;;;;;;5101249;28;20656;-61
2022/03/13 04:03:00;;;;;;;2.88;2.78;;;;;;;;;;5102388;28;20176;-61
2022/03/13 04:05:25;;;;;;;3.75;3.17;;;;;;;;;;5097707;28;20195;-61
2022/03/13 04:07:51;;;;;;;3.00;2.80;;;;;;;;;;5091533;28;20196;-61
2022/03/13 04:10:16;;;;;;;12.00;6.68;;;;;;;;;;5089352;28;20184;-61
2022/03/13 04:12:41;;;;;;;2.60;2.40;;;;;;;;;;5099444;28;20204;-61
2022/03/13 04:15:07;;;;;;;2.22;2.08;;;;;;;;;;5095020;28;20256;-61
2022/03/13 04:17:32;;;;;;;2.78;2.55;;;;;;;;;;5097019;28;20233;-61
2022/03/13 04:19:58;;;;;;;2.55;2.45;;;;;;;;;;5096262;28;20211;-61
2022/03/13 04:22:23;;;;;;;2.67;2.47;;;;;;;;;;5094978;28;20266;-61
2022/03/13 04:24:49;;;;;;;2.78;2.58;;;;;;;;;;5106756;28;20208;-61
2022/03/13 04:27:14;;;;;;;2.45;2.25;;;;;;;;;;5100244;28;20214;-61
2022/03/13 04:29:40;;;;;;;2.63;2.42;;;;;;;;;;5094415;28;20646;-61
2022/03/13 04:32:05;;;;;;;2.30;2.20;;;;;;;;;;5097294;28;20243;-61
2022/03/13 04:34:31;;;;;;;2.10;2.00;;;;;;;;;;5096166;28;20181;-61
2022/03/13 04:36:59;;;;;;;2.53;2.33;;;;;;;;;;5095792;28;20180;-61
2022/03/13 04:39:24;;;;;;;2.70;2.60;;;;;;;;;;5097599;28;21127;-61
2022/03/13 04:41:49;;;;;;;3.80;3.50;;;;;;;;;;5095724;28;20181;-61
2022/03/13 04:44:18;;;;;;;2.90;2.70;;;;;;;;;;5093594;28;20309;-61
2022/03/13 04:46:43;;;;;;;2.90;2.70;;;;;;;;;;5094787;28;20181;-61
2022/03/13 04:49:08;;;;;;;2.83;2.63;;;;;;;;;;5098976;28;20195;-61
2022/03/13 04:51:34;;;;;;;2.80;2.60;;;;;;;;;;5106619;28;20184;-61
2022/03/13 04:53:59;;;;;;;3.20;2.90;;;;;;;;;;5102972;28;20265;-61
2022/03/13 04:56:24;;;;;;;3.67;3.22;;;;;;;;;;5084058;28;20176;-61
2022/03/13 04:58:50;;;;;;;3.03;2.75;;;;;;;;;;5079396;28;20265;-61
2022/03/13 05:01:17;;;;;;;2.80;2.60;;;;;;;;;;5087586;28;20172;-61
2022/03/13 05:03:42;;;;;;;3.30;3.00;;;;;;;;;;5104982;28;20672;-61
2022/03/13 05:06:07;;;;;;;3.95;3.65;;;;;;;;;;5098110;28;20177;-61
2022/03/13 05:08:34;;;;;;;3.45;3.15;;;;;;;;;;5102439;28;20184;-61
2022/03/13 05:10:59;;;;;;;2.60;2.35;;;;;;;;;;5101429;28;20212;-61
2022/03/13 05:13:25;;;;;;;2.92;2.63;;;;;;;;;;5100720;28;20633;-61
2022/03/13 05:15:52;;;;;;;3.40;3.10;;;;;;;;;;5098088;28;20680;-60
2022/03/13 05:18:18;;;;;;;3.08;2.88;;;;;;;;;;5098214;28;20210;-61
2022/03/13 05:20:43;;;;;;;3.15;2.78;;;;;;;;;;5100085;28;20172;-61
2022/03/13 05:23:09;;;;;;;3.45;2.65;;;;;;;;;;5099664;28;20185;-61
2022/03/13 05:25:35;;;;;;;2.90;2.70;;;;;;;;;;5097666;28;20642;-61
2022/03/13 05:28:00;;;;;;;2.78;2.58;;;;;;;;;;5095041;28;20610;-61
2022/03/13 05:30:26;;;;;;;3.58;3.28;;;;;;;;;;5108504;28;20236;-60
2022/03/13 05:32:51;;;;;;;2.92;2.72;;;;;;;;;;5099662;28;20183;-60
2022/03/13 05:35:17;;;;;;;2.92;2.72;;;;;;;;;;5097664;28;20179;-60
2022/03/13 05:37:42;;;;;;;3.13;2.85;;;;;;;;;;5085783;28;20184;-60
2022/03/13 05:40:13;;;;;;;3.80;2.67;;;;;;;;;;5078190;28;20236;-60
2022/03/13 05:42:46;;;;;;;3.10;2.85;;;;;;;;;;5100039;28;20209;-60
2022/03/13 05:45:20;;;;;;;4.00;2.97;;;;;;;;;;5105951;28;20613;-60
2022/03/13 05:47:46;;;;;;;3.72;3.40;;;;;;;;;;5092615;28;20557;-61
2022/03/13 05:50:12;;;;;;;5.50;4.28;;;;;;;;;;5098859;28;20593;-61
2022/03/13 05:52:37;;;;;;;5.93;4.20;;;;;;;;;;5095704;28;20178;-60
2022/03/13 05:55:03;;;;;;;5.03;2.92;;;;;;;;;;5099919;28;20665;-61
2022/03/13 05:57:28;;;;;;;4.30;2.88;;;;;;;;;;5099747;28;20182;-61
2022/03/13 05:59:53;;;;;;;2.55;2.38;;;;;;;;;;5096487;28;20727;-60
2022/03/13 06:02:20;;;;;;;5.63;4.13;;;;;;;;;;5098963;28;20178;-60
2022/03/13 06:04:45;;;;;;;3.58;3.28;;;;;;;;;;5101644;28;20187;-60
2022/03/13 06:07:11;;;;;;;3.60;3.30;;;;;;;;;;5105535;28;20653;-61
2022/03/13 06:09:36;;;;;;;3.53;3.25;;;;;;;;;;5099837;28;20176;-60
2022/03/13 06:12:01;;;;;;;2.70;2.50;;;;;;;;;;5098897;28;20657;-60
2022/03/13 06:14:27;;;;;;;2.72;2.53;;;;;;;;;;5103061;28;20175;-60
2022/03/13 06:16:52;;;;;;;4.38;4.03;;;;;;;;;;5105682;28;20221;-60
2022/03/13 06:19:17;;;;;;;3.22;2.90;;;;;;;;;;5104158;28;20199;-60
2022/03/13 06:21:42;;;;;;;6.32;3.30;;;;;;;;;;5097054;28;20948;-60
2022/03/13 06:24:08;;;;;;;3.80;3.45;;;;;;;;;;5098871;28;20164;-60
2022/03/13 06:26:34;;;;;;;3.85;3.42;;;;;;;;;;5101896;28;20534;-61
2022/03/13 06:29:00;;;;;;;2.50;2.40;;;;;;;;;;5093252;28;20191;-60
2022/03/13 06:31:25;;;;;;;9.00;3.00;;;;;;;;;;5093249;28;20587;-61
2022/03/13 06:33:50;;;;;;;3.42;3.13;;;;;;;;;;5097174;28;20207;-60
2022/03/13 06:36:16;;;;;;;4.22;3.65;;;;;;;;;;5093901;28;20177;-61
2022/03/13 06:38:41;;;;;;;4.35;2.70;;;;;;;;;;5091877;28;20200;-60
2022/03/13 06:41:06;;;;;;;2.38;2.28;;;;;;;;;;5101497;28;20311;-61
2022/03/13 06:43:34;;;;;;;2.10;2.00;;;;;;;;;;5097634;28;20642;-61
2022/03/13 06:45:59;;;;;;;4.05;2.80;;;;;;;;;;5099174;28;20182;-60
2022/03/13 06:48:26;;;;;;;4.07;2.58;;;;;;;;;;5094232;28;20180;-61
2022/03/13 06:50:51;;;;;;;2.50;2.30;;;;;;;;;;5095356;28;20199;-61
2022/03/13 06:53:17;;;;;;;5.00;3.40;;;;;;;;;;5101265;28;20172;-62
2022/03/13 06:55:42;;;;;;;3.17;2.97;;;;;;;;;;5104508;28;20172;-61
2022/03/13 06:58:07;;;;;;;4.18;3.20;;;;;;;;;;5096546;28;20229;-61
2022/03/13 07:00:33;;;;;;;5.40;3.10;;;;;;;;;;5092260;28;20180;-60
2022/03/13 07:02:59;;;;;;;5.28;3.50;;;;;;;;;;5078721;28;20230;-60
2022/03/13 07:05:24;;;;;;;8.90;5.50;;;;;;;;;;5077500;28;20763;-60
2022/03/13 07:07:50;;;;;;;5.10;4.70;;;;;;;;;;5081892;28;20732;-60
2022/03/13 07:10:15;;;;;;;13.57;8.20;;;;;;;;;;5101032;28;20203;-60
2022/03/13 07:12:42;;;;;;;7.80;4.82;;;;;;;;;;5100376;28;20173;-60
2022/03/13 07:15:12;;;;;;;3.20;3.00;;;;;;;;;;5089729;28;20192;-61
2022/03/13 07:17:38;;;;;;;3.65;3.33;;;;;;;;;;5101077;28;20179;-60
2022/03/13 07:20:05;;;;;;;5.07;3.95;;;;;;;;;;5087218;28;20200;-61
2022/03/13 07:22:31;;;;;;;4.53;4.10;;;;;;;;;;5098232;28;20194;-61
2022/03/13 07:24:56;;;;;;;3.28;3.03;;;;;;;;;;5095652;28;20179;-61
2022/03/13 07:27:21;;;;;;;3.20;3.00;;;;;;;;;;5097901;28;20175;-61
2022/03/13 07:29:49;;;;;;;6.07;3.60;;;;;;;;;;5093156;28;20586;-61
2022/03/13 07:32:15;;;;;;;4.35;3.95;;;;;;;;;;5091525;28;20629;-61
2022/03/13 07:34:40;;;;;;;3.05;2.83;;;;;;;;;;5096012;28;20180;-61
2022/03/13 07:37:06;;;;;;;3.20;2.90;;;;;;;;;;5095022;28;20609;-61
2022/03/13 07:39:32;;;;;;;2.85;2.63;;;;;;;;;;5101602;28;20276;-61
2022/03/13 07:41:57;;;;;;;2.85;2.65;;;;;;;;;;5107071;28;20236;-61
2022/03/13 07:44:22;;;;;;;3.40;3.00;;;;;;;;;;5081011;28;20183;-61
2022/03/13 07:46:47;;;;;;;2.67;2.53;;;;;;;;;;5076135;28;20610;-60
2022/03/13 07:49:13;;;;;;;2.83;2.58;;;;;;;;;;5078398;28;20980;-61
2022/03/13 07:51:38;;;;;;;3.00;2.80;;;;;;;;;;5092993;28;21028;-61
2022/03/13 07:54:03;;;;;;;6.85;2.53;;;;;;;;;;5103986;28;20207;-61
2022/03/13 07:56:29;;;;;;;4.20;3.38;;;;;;;;;;5089506;28;20205;-61
2022/03/13 07:58:54;;;;;;;4.05;2.78;;;;;;;;;;5085485;28;20228;-61
2022/03/13 08:01:20;;;;;;;2.88;2.50;;;;;;;;;;5097490;28;20664;-60
2022/03/13 08:03:45;;;;;;;3.33;2.65;;;;;;;;;;5094586;28;20203;-61
2022/03/13 08:06:11;;;;;;;3.28;2.35;;;;;;;;;;5077256;28;20178;-61
2022/03/13 08:08:36;;;;;;;3.28;2.97;;;;;;;;;;5076270;28;20184;-61
2022/03/13 08:11:02;;;;;;;3.95;3.55;;;;;;;;;;5100202;28;20175;-60
2022/03/13 08:13:27;;;;;;;10.52;4.97;;;;;;;;;;5095344;28;20181;-61
2022/03/13 08:15:52;;;;;;;8.18;4.65;;;;;;;;;;5100839;28;20191;-60
2022/03/13 08:18:18;;;;;;;4.20;3.80;;;;;;;;;;5103702;28;20210;-61
2022/03/13 08:20:43;;;;;;;6.72;4.43;;;;;;;;;;5092631;28;20259;-61
2022/03/13 08:23:08;;;;;;;4.07;3.67;;;;;;;;;;5093489;28;20782;-60
2022/03/13 08:25:34;;;;;;;7.38;4.57;;;;;;;;;;5108631;28;20205;-60
2022/03/13 08:28:00;;;;;;;6.18;4.07;;;;;;;;;;5099485;27;20893;-60
2022/03/13 08:30:25;;;;;;;4.10;3.65;;;;;;;;;;5100820;28;20217;-60
2022/03/13 08:32:51;;;;;;;3.80;3.50;;;;;;;;;;5103077;28;20237;-60
2022/03/13 08:35:17;;;;;;;4.57;3.72;;;;;;;;;;5103419;28;20196;-60
2022/03/13 08:37:42;;;;;;;15.90;9.10;;;;;;;;;;5101480;28;20623;-60
2022/03/13 08:40:09;;;;;;;29.42;15.13;;;;;;;;;;5091769;28;20239;-60
2022/03/13 08:42:34;;;;;;;15.63;10.02;;;;;;;;;;5098695;28;20168;-61
2022/03/13 08:44:59;;;;;;;42.47;21.63;;;;;;;;;;5100150;28;20176;-61
2022/03/13 08:47:25;;;;;;;16.77;8.25;;;;;;;;;;5105447;28;20232;-60
2022/03/13 08:49:50;;;;;;;12.98;7.45;;;;;;;;;;5099558;27;20602;-61
2022/03/13 08:52:17;;;;;;;9.45;6.80;;;;;;;;;;5101244;28;20270;-60
2022/03/13 08:54:42;;;;;;;6.93;4.75;;;;;;;;;;5094717;28;20188;-61
2022/03/13 08:57:07;;;;;;;11.80;7.28;;;;;;;;;;5107484;28;20233;-60
2022/03/13 08:59:35;;;;;;;8.95;5.80;;;;;;;;;;5102582;28;20275;-61
2022/03/13 09:02:01;;;;;;;7.10;4.80;;;;;;;;;;5094551;28;20259;-61
2022/03/13 09:04:27;;;;;;;10.48;7.28;;;;;;;;;;5094352;28;20330;-61
2022/03/13 09:06:54;;;;;;;11.43;7.45;;;;;;;;;;5097142;28;20552;-61
2022/03/13 09:09:20;;;;;;;11.70;6.95;;;;;;;;;;5083823;28;20188;-60
2022/03/13 09:11:47;;;;;;;7.57;5.90;;;;;;;;;;5079487;28;20280;-60
2022/03/13 09:14:12;;;;;;;6.30;4.80;;;;;;;;;;5102783;28;20188;-61
2022/03/13 09:16:38;;;;;;;8.90;6.47;;;;;;;;;;5108646;28;20191;-61
2022/03/13 09:19:04;;;;;;;7.15;4.97;;;;;;;;;;5104876;28;20203;-61
2022/03/13 09:21:31;;;;;;;27.73;13.00;;;;;;;;;;5099957;28;20187;-61
2022/03/13 09:23:56;;;;;;;14.68;11.00;;;;;;;;;;5092884;28;20255;-61
2022/03/13 09:26:22;;;;;;;10.30;5.45;;;;;;;;;;5101807;28;20172;-61
2022/03/13 09:28:47;;;;;;;5.55;4.53;;;;;;;;;;5100874;28;20275;-61
2022/03/13 09:31:12;;;;;;;11.57;6.90;;;;;;;;;;5098152;28;20175;-60
2022/03/13 09:33:38;;;;;;;6.90;5.47;;;;;;;;;;5099688;28;20183;-60
2022/03/13 09:36:03;;;;;;;14.00;5.75;;;;;;;;;;5101868;28;20176;-61
2022/03/13 09:38:28;;;;;;;8.93;5.90;;;;;;;;;;5096642;28;20187;-61
2022/03/13 09:40:55;;;;;;;12.15;6.57;;;;;;;;;;5106538;28;21002;-61
2022/03/13 09:43:21;;;;;;;13.55;8.23;;;;;;;;;;5107321;28;20180;-61
2022/03/13 09:45:47;;;;;;;9.88;6.38;;;;;;;;;;5102779;28;20188;-61
2022/03/13 09:48:15;;;;;;;12.75;5.53;;;;;;;;;;5095918;28;20176;-60
2022/03/13 09:50:41;;;;;;;8.15;5.07;;;;;;;;;;5098585;28;20195;-61
2022/03/13 09:53:07;;;;;;;11.18;6.18;;;;;;;;;;5098809;28;20184;-60
2022/03/13 09:55:32;;;;;;;10.55;7.47;;;;;;;;;;5100088;28;20806;-61
2022/03/13 09:57:57;;;;;;;13.98;7.88;;;;;;;;;;5091913;27;20225;-61
2022/03/13 10:00:26;;;;;;;6.30;4.60;;;;;;;;;;5101405;28;20195;-60
2022/03/13 10:02:54;;;;;;;13.73;7.63;;;;;;;;;;5097600;28;20668;-61
2022/03/13 10:05:21;;;;;;;10.18;7.18;;;;;;;;;;5090541;28;20175;-61
2022/03/13 10:08:02;;;;;;;17.58;11.93;;;;;;;;;;5095698;28;20196;-62
2022/03/13 10:10:33;;;;;;;19.02;11.10;;;;;;;;;;5104063;28;20186;-61
2022/03/13 10:13:00;;;;;;;9.90;6.35;;;;;;;;;;5097738;28;20205;-61
2022/03/13 10:15:25;;;;;;;9.10;7.60;;;;;;;;;;5098495;28;20176;-62
2022/03/13 10:17:51;;;;;;;6.93;5.32;;;;;;;;;;5103355;28;20650;-62
2022/03/13 10:20:21;;;;;;;6.88;5.20;;;;;;;;;;5096198;28;20207;-62
2022/03/13 10:22:48;;;;;;;7.50;5.50;;;;;;;;;;5100294;28;20179;-62
2022/03/13 10:25:15;;;;;;;11.32;7.30;;;;;;;;;;5106342;28;20216;-61
2022/03/13 10:27:41;;;;;;;5.38;4.25;;;;;;;;;;5099734;28;20683;-62
2022/03/13 10:30:09;;;;;;;4.78;4.20;;;;;;;;;;5094710;28;20186;-62
2022/03/13 10:32:37;;;;;;;5.10;4.13;;;;;;;;;;5089422;28;20208;-61
2022/03/13 10:35:03;;;;;;;5.78;4.28;;;;;;;;;;5097421;28;20209;-61
2022/03/13 10:37:32;;;;;;;4.25;3.85;;;;;;;;;;5098916;28;20788;-61
2022/03/13 10:40:04;;;;;;;13.60;9.20;;;;;;;;;;5103350;28;20207;-61
2022/03/13 10:42:30;;;;;;;5.82;4.50;;;;;;;;;;5100526;28;20258;-62
2022/03/13 10:45:02;;;;;;;5.65;4.95;;;;;;;;;;5099238;28;20259;-62
2022/03/13 10:47:31;;;;;;;4.00;3.60;;;;;;;;;;5095630;28;20238;-61
2022/03/13 10:49:56;;;;;;;4.45;4.05;;;;;;;;;;5097114;28;20199;-61
2022/03/13 10:52:22;;;;;;;6.32;4.47;;;;;;;;;;5091854;28;20172;-62
2022/03/13 10:54:47;;;;;;;5.38;4.70;;;;;;;;;;5096474;28;20254;-60
2022/03/13 10:57:13;;;;;;;7.85;6.78;;;;;;;;;;5097754;28;20172;-61
2022/03/13 10:59:41;;;;;;;7.55;6.80;;;;;;;;;;5096798;28;20594;-61
2022/03/13 11:02:13;;;;;;;5.25;4.78;;;;;;;;;;5094182;28;20267;-61
2022/03/13 11:04:49;;;;;;;4.55;3.55;;;;;;;;;;5099835;28;20183;-61
2022/03/13 11:07:15;;;;;;;5.53;4.93;;;;;;;;;;5099457;28;20192;-60
2022/03/13 11:09:40;;;;;;;7.50;6.28;;;;;;;;;;5100186;28;20187;-61
2022/03/13 11:12:09;;;;;;;13.93;10.00;;;;;;;;;;5102206;28;20644;-61
2022/03/13 11:14:34;;;;;;;21.25;9.68;;;;;;;;;;5096924;28;20180;-60
2022/03/13 11:17:01;;;;;;;7.18;5.90;;;;;;;;;;5076578;28;20248;-61
2022/03/13 11:19:28;;;;;;;7.82;6.28;;;;;;;;;;5097695;28;20191;-61
2022/03/13 11:21:53;;;;;;;7.90;4.95;;;;;;;;;;5103855;28;20179;-61
2022/03/13 11:24:19;;;;;;;10.13;6.40;;;;;;;;;;5100557;28;20175;-61
2022/03/13 11:26:45;;;;;;;29.23;14.18;;;;;;;;;;5103251;28;20175;-60
2022/03/13 11:29:10;;;;;;;13.00;7.80;;;;;;;;;;5098020;28;20179;-61
2022/03/13 11:31:37;;;;;;;7.97;5.63;;;;;;;;;;5102098;28;20278;-61
2022/03/13 11:34:12;;;;;;;11.82;6.78;;;;;;;;;;5104644;28;20236;-61
2022/03/13 11:36:39;;;;;;;12.65;7.75;;;;;;;;;;5095950;28;20197;-61
2022/03/13 11:39:06;;;;;;;10.98;6.50;;;;;;;;;;5096779;28;20234;-61
2022/03/13 11:41:42;;;;;;;11.23;6.70;;;;;;;;;;5099007;28;20200;-61
2022/03/13 11:44:22;;;;;;;9.43;5.82;;;;;;;;;;5100343;28;20175;-61
2022/03/13 11:46:49;;;;;;;20.67;9.95;;;;;;;;;;5086778;28;20183;-61
2022/03/13 11:49:16;;;;;;;21.63;10.30;;;;;;;;;;5099821;28;20208;-61
2022/03/13 11:51:43;;;;;;;17.40;8.60;;;;;;;;;;5104611;28;20195;-61
2022/03/13 11:54:09;;;;;;;18.83;10.15;;;;;;;;;;5091134;28;20213;-61
2022/03/13 11:56:45;;;;;;;43.10;17.40;;;;;;;;;;5100164;28;20214;-61
2022/03/13 11:59:19;;;;;;;17.73;9.52;;;;;;;;;;5100521;28;20191;-62
2022/03/13 12:01:45;;;;;;;9.00;6.30;;;;;;;;;;5101906;28;20190;-60
2022/03/13 12:04:11;;;;;;;10.85;5.85;;;;;;;;;;5102267;28;20176;-60
2022/03/13 12:06:39;;;;;;;12.93;8.32;;;;;;;;;;5103614;28;20187;-61
2022/03/13 12:09:30;;;;;;;13.90;8.05;;;;;;;;;;5104678;28;20195;-60
2022/03/13 12:11:56;;;;;;;16.90;10.45;;;;;;;;;;5080226;28;20183;-61
2022/03/13 12:14:21;;;;;;;26.77;13.32;;;;;;;;;;5094084;28;20192;-61
2022/03/13 12:17:03;;;;;;;28.35;15.07;;;;;;;;;;5100381;28;20192;-61
2022/03/13 12:19:36;;;;;;;42.53;18.08;;;;;;;;;;5099215;28;21061;-61
2022/03/13 12:22:05;;;;;;;40.00;18.50;;;;;;;;;;5101555;28;20719;-61
2022/03/13 12:24:32;;;;;;;10.27;7.95;;;;;;;;;;5105287;28;20261;-60
2022/03/13 12:27:00;;;;;;;21.88;10.07;;;;;;;;;;5093847;28;20212;-61
2022/03/13 12:29:28;;;;;;;11.05;7.57;;;;;;;;;;5109396;28;20179;-61
2022/03/13 12:31:53;;;;;;;15.38;10.75;;;;;;;;;;5101886;28;20676;-60
2022/03/13 12:34:24;;;;;;;11.73;7.32;;;;;;;;;;5101648;28;20184;-61
2022/03/13 12:36:50;;;;;;;16.88;10.23;;;;;;;;;;5098897;28;20183;-61
2022/03/13 12:39:16;;;;;;;8.63;7.10;;;;;;;;;;5093576;28;20208;-60
2022/03/13 12:41:44;;;;;;;16.02;9.77;;;;;;;;;;5079990;28;20208;-60
2022/03/13 12:44:14;;;;;;;17.55;10.90;;;;;;;;;;5101833;28;20221;-60
2022/03/13 12:46:39;;;;;;;12.18;7.65;;;;;;;;;;5107045;28;20270;-60
2022/03/13 12:49:06;;;;;;;9.82;6.93;;;;;;;;;;5098296;28;20279;-61
2022/03/13 12:51:38;;;;;;;7.95;6.43;;;;;;;;;;5103590;28;20766;-60
2022/03/13 12:54:08;;;;;;;5.22;4.72;;;;;;;;;;5101225;28;20188;-62
2022/03/13 12:56:35;;;;;;;4.82;4.25;;;;;;;;;;5099610;28;20179;-60
2022/03/13 12:59:00;;;;;;;4.60;4.15;;;;;;;;;;5104931;28;20206;-62
2022/03/13 13:01:25;;;;;;;7.07;5.20;;;;;;;;;;5098657;28;20176;-62
2022/03/13 13:03:52;;;;;;;16.42;12.63;;;;;;;;;;5100484;28;20184;-61
2022/03/13 13:06:31;;;;;;;4.90;4.50;;;;;;;;;;5098024;28;20180;-62
2022/03/13 13:08:56;;;;;;;5.38;4.40;;;;;;;;;;5098602;28;20202;-62
2022/03/13 13:11:31;;;;;;;6.60;5.47;;;;;;;;;;5100706;28;20180;-62
2022/03/13 13:13:57;;;;;;;5.90;5.00;;;;;;;;;;5102969;28;20186;-60
2022/03/13 13:16:23;;;;;;;10.18;6.97;;;;;;;;;;5107900;28;20184;-61
2022/03/13 13:18:48;;;;;;;8.90;7.32;;;;;;;;;;5103818;28;20230;-61
2022/03/13 13:21:13;;;;;;;12.27;6.63;;;;;;;;;;5098729;28;20180;-61
2022/03/13 13:23:38;;;;;;;8.40;7.30;;;;;;;;;;5099035;28;20179;-61
2022/03/13 13:26:04;;;;;;;20.73;14.23;;;;;;;;;;5099757;28;20209;-61
2022/03/13 13:28:29;;;;;;;11.38;8.23;;;;;;;;;;5104033;28;20576;-61
2022/03/13 13:30:55;;;;;;;7.53;5.72;;;;;;;;;;5088848;28;20187;-61
2022/03/13 13:33:25;;;;;;;6.07;4.20;;;;;;;;;;5095106;28;20183;-61
2022/03/13 13:35:51;;;;;;;4.57;4.18;;;;;;;;;;5096814;28;20176;-61
2022/03/13 13:38:17;;;;;;;5.78;3.97;;;;;;;;;;5100449;28;20184;-61
2022/03/13 13:41:00;;;;;;;4.32;3.92;;;;;;;;;;5099619;28;20214;-62
2022/03/13 13:43:30;;;;;;;10.07;7.78;;;;;;;;;;5097167;28;20200;-62
2022/03/13 13:46:01;;;;;;;8.50;6.53;;;;;;;;;;5099175;28;20186;-61
2022/03/13 13:48:26;;;;;;;13.55;8.75;;;;;;;;;;5096066;28;20176;-61
2022/03/13 13:51:15;;;;;;;9.38;6.97;;;;;;;;;;5094553;28;20206;-61
2022/03/13 13:53:48;;;;;;;9.88;6.05;;;;;;;;;;5093572;28;20256;-61
2022/03/13 13:56:13;;;;;;;11.80;7.50;;;;;;;;;;5098810;28;20175;-62
2022/03/13 13:58:39;;;;;;;14.52;9.80;;;;;;;;;;5097883;28;20203;-61
2022/03/13 14:01:22;;;;;;;12.65;8.60;;;;;;;;;;5091489;28;20215;-61
2022/03/13 14:03:47;;;;;;;5.70;5.03;;;;;;;;;;5084705;28;20855;-62
2022/03/13 14:06:13;;;;;;;6.82;4.90;;;;;;;;;;5078539;28;20165;-60
2022/03/13 14:08:38;;;;;;;10.35;5.22;;;;;;;;;;5081830;28;20192;-60
2022/03/13 14:11:03;;;;;;;12.95;7.25;;;;;;;;;;5098742;28;20216;-61
2022/03/13 14:13:29;;;;;;;24.60;13.65;;;;;;;;;;5099738;28;20212;-61
2022/03/13 14:15:54;;;;;;;18.25;10.00;;;;;;;;;;5094234;28;20660;-62
2022/03/13 14:18:20;;;;;;;17.60;11.63;;;;;;;;;;5103153;28;20236;-62
2022/03/13 14:20:45;;;;;;;11.68;7.07;;;;;;;;;;5094537;28;20259;-61
2022/03/13 14:23:10;;;;;;;7.05;5.78;;;;;;;;;;5096619;28;20271;-61
2022/03/13 14:25:36;;;;;;;36.75;16.60;;;;;;;;;;5077405;28;20180;-61
2022/03/13 14:28:01;;;;;;;56.58;22.15;;;;;;;;;;5078889;28;20191;-61
2022/03/13 14:30:27;;;;;;;123.63;46.75;;;;;;;;;;5088754;28;20265;-62
2022/03/13 14:32:52;;;;;;;122.90;47.75;;;;;;;;;;5099805;28;20184;-61
2022/03/13 14:35:18;;;;;;;32.90;15.85;;;;;;;;;;5101318;28;20619;-61